sensor_id;sensor_type;location;lat;lon;timestamp;P1;durP1;ratioP1;P2;durP2;ratioP2
7571;SDS011;3827;49.928;8.548;2024-03-02T00:01:20;5.23;;;4.73;;
7571;SDS011;3827;49.928;8.548;2024-03-02T00:03:47;4.90;;;4.50;;
7571;SDS011;3827;49.928;8.548;2024-03-02T00:06:14;7.03;;;5.82;;
7571;SDS011;3827;49.928;8.548;2024-03-02T00:08:43;5.72;;;5.22;;
7571;SDS011;3827;49.928;8.548;2024-03-02T00:11:09;7.45;;;6.60;;
7571;SDS011;3827;49.928;8.548;2024-03-02T00:13:39;6.95;;;6.25;;
7571;SDS011;3827;49.928;8.548;2024-03-02T00:16:06;6.68;;;6.07;;
7571;SDS011;3827;49.928;8.548;2024-03-02T00:18:34;7.93;;;7.13;;
7571;SDS011;3827;49.928;8.548;2024-03-02T00:21:01;8.18;;;7.38;;
7571;SDS011;3827;49.928;8.548;2024-03-02T00:23:34;7.60;;;6.85;;
7571;SDS011;3827;49.928;8.548;2024-03-02T00:26:02;7.18;;;6.50;;
7571;SDS011;3827;49.928;8.548;2024-03-02T00:28:30;7.97;;;6.88;;
7571;SDS011;3827;49.928;8.548;2024-03-02T00:31:02;7.70;;;7.00;;
7571;SDS011;3827;49.928;8.548;2024-03-02T00:33:30;8.17;;;7.37;;
7571;SDS011;3827;49.928;8.548;2024-03-02T00:35:58;7.85;;;7.03;;
7571;SDS011;3827;49.928;8.548;2024-03-02T00:38:25;8.02;;;7.32;;
7571;SDS011;3827;49.928;8.548;2024-03-02T00:40:53;8.35;;;7.45;;
7571;SDS011;3827;49.928;8.548;2024-03-02T00:46:27;7.20;;;6.53;;
7571;SDS011;3827;49.928;8.548;2024-03-02T00:48:56;8.25;;;7.45;;
7571;SDS011;3827;49.928;8.548;2024-03-02T00:51:24;8.38;;;7.55;;
7571;SDS011;3827;49.928;8.548;2024-03-02T00:53:51;8.23;;;7.43;;
7571;SDS011;3827;49.928;8.548;2024-03-02T00:56:21;8.02;;;7.22;;
7571;SDS011;3827;49.928;8.548;2024-03-02T00:58:47;7.50;;;6.80;;
7571;SDS011;3827;49.928;8.548;2024-03-02T01:01:16;8.10;;;7.30;;
7571;SDS011;3827;49.928;8.548;2024-03-02T01:03:43;8.52;;;7.28;;
7571;SDS011;3827;49.928;8.548;2024-03-02T01:06:10;7.60;;;6.90;;
7571;SDS011;3827;49.928;8.548;2024-03-02T01:08:37;7.55;;;6.78;;
7571;SDS011;3827;49.928;8.548;2024-03-02T01:11:04;8.38;;;7.57;;
7571;SDS011;3827;49.928;8.548;2024-03-02T01:13:31;8.40;;;7.60;;
7571;SDS011;3827;49.928;8.548;2024-03-02T01:15:58;8.65;;;7.78;;
7571;SDS011;3827;49.928;8.548;2024-03-02T01:18:27;10.47;;;9.00;;
7571;SDS011;3827;49.928;8.548;2024-03-02T01:20:54;8.38;;;7.57;;
7571;SDS011;3827;49.928;8.548;2024-03-02T01:23:21;9.98;;;8.93;;
7571;SDS011;3827;49.928;8.548;2024-03-02T01:25:48;9.27;;;8.38;;
7571;SDS011;3827;49.928;8.548;2024-03-02T01:28:15;8.40;;;7.60;;
7571;SDS011;3827;49.928;8.548;2024-03-02T01:30:42;8.13;;;7.40;;
7571;SDS011;3827;49.928;8.548;2024-03-02T01:33:09;8.30;;;7.50;;
7571;SDS011;3827;49.928;8.548;2024-03-02T01:35:37;9.18;;;8.35;;
7571;SDS011;3827;49.928;8.548;2024-03-02T01:38:04;10.43;;;9.27;;
7571;SDS011;3827;49.928;8.548;2024-03-02T01:40:32;11.63;;;10.43;;
7571;SDS011;3827;49.928;8.548;2024-03-02T01:42:59;11.23;;;10.13;;
7571;SDS011;3827;49.928;8.548;2024-03-02T01:45:27;11.15;;;9.63;;
7571;SDS011;3827;49.928;8.548;2024-03-02T01:47:54;11.00;;;9.90;;
7571;SDS011;3827;49.928;8.548;2024-03-02T01:50:24;11.02;;;9.75;;
7571;SDS011;3827;49.928;8.548;2024-03-02T01:52:53;10.90;;;9.10;;
7571;SDS011;3827;49.928;8.548;2024-03-02T01:55:20;10.07;;;9.10;;
7571;SDS011;3827;49.928;8.548;2024-03-02T01:57:47;10.60;;;9.50;;
7571;SDS011;3827;49.928;8.548;2024-03-02T02:00:15;10.57;;;9.50;;
7571;SDS011;3827;49.928;8.548;2024-03-02T02:02:43;11.55;;;10.07;;
7571;SDS011;3827;49.928;8.548;2024-03-02T02:05:10;11.50;;;10.32;;
7571;SDS011;3827;49.928;8.548;2024-03-02T02:07:37;11.20;;;10.00;;
7571;SDS011;3827;49.928;8.548;2024-03-02T02:10:06;11.60;;;10.40;;
7571;SDS011;3827;49.928;8.548;2024-03-02T02:12:33;12.25;;;11.05;;
7571;SDS011;3827;49.928;8.548;2024-03-02T02:15:00;12.77;;;11.47;;
7571;SDS011;3827;49.928;8.548;2024-03-02T02:17:27;11.80;;;10.50;;
7571;SDS011;3827;49.928;8.548;2024-03-02T02:19:53;9.15;;;8.18;;
7571;SDS011;3827;49.928;8.548;2024-03-02T02:22:21;11.43;;;10.30;;
7571;SDS011;3827;49.928;8.548;2024-03-02T02:24:48;11.40;;;10.20;;
7571;SDS011;3827;49.928;8.548;2024-03-02T02:27:15;12.27;;;11.07;;
7571;SDS011;3827;49.928;8.548;2024-03-02T02:29:41;10.80;;;9.80;;
7571;SDS011;3827;49.928;8.548;2024-03-02T02:32:08;11.77;;;10.52;;
7571;SDS011;3827;49.928;8.548;2024-03-02T02:34:35;11.43;;;10.23;;
7571;SDS011;3827;49.928;8.548;2024-03-02T02:37:02;12.07;;;10.68;;
7571;SDS011;3827;49.928;8.548;2024-03-02T02:39:30;12.00;;;10.80;;
7571;SDS011;3827;49.928;8.548;2024-03-02T02:41:56;11.25;;;10.15;;
7571;SDS011;3827;49.928;8.548;2024-03-02T02:44:25;12.32;;;10.77;;
7571;SDS011;3827;49.928;8.548;2024-03-02T02:46:52;10.20;;;9.30;;
7571;SDS011;3827;49.928;8.548;2024-03-02T02:49:18;10.63;;;9.52;;
7571;SDS011;3827;49.928;8.548;2024-03-02T02:51:45;9.90;;;8.90;;
7571;SDS011;3827;49.928;8.548;2024-03-02T02:54:12;9.10;;;8.20;;
7571;SDS011;3827;49.928;8.548;2024-03-02T02:56:40;10.13;;;9.13;;
7571;SDS011;3827;49.928;8.548;2024-03-02T02:59:07;9.83;;;8.83;;
7571;SDS011;3827;49.928;8.548;2024-03-02T03:01:34;9.48;;;8.52;;
7571;SDS011;3827;49.928;8.548;2024-03-02T03:04:00;9.45;;;8.45;;
7571;SDS011;3827;49.928;8.548;2024-03-02T03:06:27;10.20;;;9.10;;
7571;SDS011;3827;49.928;8.548;2024-03-02T03:08:54;8.68;;;7.88;;
7571;SDS011;3827;49.928;8.548;2024-03-02T03:11:20;8.68;;;7.93;;
7571;SDS011;3827;49.928;8.548;2024-03-02T03:13:51;8.80;;;7.90;;
7571;SDS011;3827;49.928;8.548;2024-03-02T03:16:19;8.68;;;7.78;;
7571;SDS011;3827;49.928;8.548;2024-03-02T03:18:46;9.02;;;7.38;;
7571;SDS011;3827;49.928;8.548;2024-03-02T03:21:15;8.10;;;7.30;;
7571;SDS011;3827;49.928;8.548;2024-03-02T03:23:41;8.38;;;7.57;;
7571;SDS011;3827;49.928;8.548;2024-03-02T03:26:08;9.93;;;8.33;;
7571;SDS011;3827;49.928;8.548;2024-03-02T03:28:35;11.13;;;9.68;;
7571;SDS011;3827;49.928;8.548;2024-03-02T03:31:03;10.40;;;9.30;;
7571;SDS011;3827;49.928;8.548;2024-03-02T03:33:30;10.48;;;9.38;;
7571;SDS011;3827;49.928;8.548;2024-03-02T03:35:57;10.23;;;9.23;;
7571;SDS011;3827;49.928;8.548;2024-03-02T03:38:24;10.40;;;9.40;;
7571;SDS011;3827;49.928;8.548;2024-03-02T03:40:50;10.75;;;9.65;;
7571;SDS011;3827;49.928;8.548;2024-03-02T03:43:17;11.10;;;9.68;;
7571;SDS011;3827;49.928;8.548;2024-03-02T03:45:44;11.80;;;10.60;;
7571;SDS011;3827;49.928;8.548;2024-03-02T03:48:12;11.15;;;10.05;;
7571;SDS011;3827;49.928;8.548;2024-03-02T03:50:38;10.10;;;9.00;;
7571;SDS011;3827;49.928;8.548;2024-03-02T03:53:05;10.40;;;8.80;;
7571;SDS011;3827;49.928;8.548;2024-03-02T03:55:32;9.60;;;8.60;;
7571;SDS011;3827;49.928;8.548;2024-03-02T03:57:59;10.67;;;9.57;;
7571;SDS011;3827;49.928;8.548;2024-03-02T04:00:25;11.70;;;10.23;;
7571;SDS011;3827;49.928;8.548;2024-03-02T04:02:52;10.80;;;9.70;;
7571;SDS011;3827;49.928;8.548;2024-03-02T04:05:20;10.60;;;9.50;;
7571;SDS011;3827;49.928;8.548;2024-03-02T04:07:47;11.48;;;10.10;;
7571;SDS011;3827;49.928;8.548;2024-03-02T04:10:13;11.05;;;9.82;;
7571;SDS011;3827;49.928;8.548;2024-03-02T04:12:42;10.80;;;9.40;;
7571;SDS011;3827;49.928;8.548;2024-03-02T04:15:09;10.82;;;9.75;;
7571;SDS011;3827;49.928;8.548;2024-03-02T04:17:35;10.95;;;9.85;;
7571;SDS011;3827;49.928;8.548;2024-03-02T04:20:02;9.35;;;8.45;;
7571;SDS011;3827;49.928;8.548;2024-03-02T04:22:33;9.20;;;8.30;;
7571;SDS011;3827;49.928;8.548;2024-03-02T04:25:01;10.73;;;9.23;;
7571;SDS011;3827;49.928;8.548;2024-03-02T04:27:29;10.73;;;9.63;;
7571;SDS011;3827;49.928;8.548;2024-03-02T04:29:56;10.63;;;9.60;;
7571;SDS011;3827;49.928;8.548;2024-03-02T04:32:23;10.48;;;9.38;;
7571;SDS011;3827;49.928;8.548;2024-03-02T04:34:50;10.95;;;9.82;;
7571;SDS011;3827;49.928;8.548;2024-03-02T04:37:16;10.32;;;9.32;;
7571;SDS011;3827;49.928;8.548;2024-03-02T04:39:44;12.23;;;10.10;;
7571;SDS011;3827;49.928;8.548;2024-03-02T04:42:11;10.20;;;9.20;;
7571;SDS011;3827;49.928;8.548;2024-03-02T04:44:38;11.02;;;9.93;;
7571;SDS011;3827;49.928;8.548;2024-03-02T04:47:05;11.53;;;9.83;;
7571;SDS011;3827;49.928;8.548;2024-03-02T04:49:31;12.50;;;10.88;;
7571;SDS011;3827;49.928;8.548;2024-03-02T04:51:58;11.18;;;10.05;;
7571;SDS011;3827;49.928;8.548;2024-03-02T04:54:25;11.60;;;10.43;;
7571;SDS011;3827;49.928;8.548;2024-03-02T04:56:53;11.45;;;10.32;;
7571;SDS011;3827;49.928;8.548;2024-03-02T04:59:20;13.25;;;11.13;;
7571;SDS011;3827;49.928;8.548;2024-03-02T05:01:46;12.82;;;11.50;;
7571;SDS011;3827;49.928;8.548;2024-03-02T05:04:13;13.57;;;12.10;;
7571;SDS011;3827;49.928;8.548;2024-03-02T05:06:40;12.43;;;11.13;;
7571;SDS011;3827;49.928;8.548;2024-03-02T05:09:07;13.85;;;11.50;;
7571;SDS011;3827;49.928;8.548;2024-03-02T05:11:34;13.30;;;11.90;;
7571;SDS011;3827;49.928;8.548;2024-03-02T05:14:22;14.32;;;12.25;;
7571;SDS011;3827;49.928;8.548;2024-03-02T05:16:49;13.60;;;11.32;;
7571;SDS011;3827;49.928;8.548;2024-03-02T05:19:15;12.55;;;11.35;;
7571;SDS011;3827;49.928;8.548;2024-03-02T05:21:42;11.77;;;10.43;;
7571;SDS011;3827;49.928;8.548;2024-03-02T05:24:09;13.75;;;11.57;;
7571;SDS011;3827;49.928;8.548;2024-03-02T05:26:36;14.20;;;12.70;;
7571;SDS011;3827;49.928;8.548;2024-03-02T05:29:02;14.05;;;12.55;;
7571;SDS011;3827;49.928;8.548;2024-03-02T05:31:30;15.07;;;13.30;;
7571;SDS011;3827;49.928;8.548;2024-03-02T05:33:57;16.52;;;14.82;;
7571;SDS011;3827;49.928;8.548;2024-03-02T05:36:24;16.08;;;14.38;;
7571;SDS011;3827;49.928;8.548;2024-03-02T05:38:51;15.53;;;13.93;;
7571;SDS011;3827;49.928;8.548;2024-03-02T05:41:17;15.88;;;13.88;;
7571;SDS011;3827;49.928;8.548;2024-03-02T05:43:44;18.83;;;16.10;;
7571;SDS011;3827;49.928;8.548;2024-03-02T05:46:11;17.77;;;15.53;;
7571;SDS011;3827;49.928;8.548;2024-03-02T05:48:39;14.30;;;12.90;;
7571;SDS011;3827;49.928;8.548;2024-03-02T05:51:06;13.05;;;11.65;;
7571;SDS011;3827;49.928;8.548;2024-03-02T05:53:32;14.00;;;12.52;;
7571;SDS011;3827;49.928;8.548;2024-03-02T05:55:59;15.50;;;13.93;;
7571;SDS011;3827;49.928;8.548;2024-03-02T05:58:26;16.25;;;14.50;;
7571;SDS011;3827;49.928;8.548;2024-03-02T06:01:08;14.32;;;12.52;;
7571;SDS011;3827;49.928;8.548;2024-03-02T06:03:34;15.70;;;14.00;;
7571;SDS011;3827;49.928;8.548;2024-03-02T06:06:03;14.05;;;12.52;;
7571;SDS011;3827;49.928;8.548;2024-03-02T06:08:30;13.43;;;12.02;;
7571;SDS011;3827;49.928;8.548;2024-03-02T06:10:57;13.77;;;11.77;;
7571;SDS011;3827;49.928;8.548;2024-03-02T06:13:24;14.57;;;13.05;;
7571;SDS011;3827;49.928;8.548;2024-03-02T06:15:51;16.10;;;13.25;;
7571;SDS011;3827;49.928;8.548;2024-03-02T06:18:18;14.25;;;12.75;;
7571;SDS011;3827;49.928;8.548;2024-03-02T06:20:45;14.68;;;13.20;;
7571;SDS011;3827;49.928;8.548;2024-03-02T06:23:13;14.30;;;12.90;;
7571;SDS011;3827;49.928;8.548;2024-03-02T06:25:40;13.93;;;12.48;;
7571;SDS011;3827;49.928;8.548;2024-03-02T06:28:06;14.52;;;13.00;;
7571;SDS011;3827;49.928;8.548;2024-03-02T06:30:33;15.27;;;13.07;;
7571;SDS011;3827;49.928;8.548;2024-03-02T06:33:00;16.63;;;14.80;;
7571;SDS011;3827;49.928;8.548;2024-03-02T06:35:28;16.97;;;15.17;;
7571;SDS011;3827;49.928;8.548;2024-03-02T06:37:55;17.27;;;15.05;;
7571;SDS011;3827;49.928;8.548;2024-03-02T06:40:23;18.73;;;15.48;;
7571;SDS011;3827;49.928;8.548;2024-03-02T06:42:50;18.05;;;15.25;;
7571;SDS011;3827;49.928;8.548;2024-03-02T06:45:17;18.33;;;16.20;;
7571;SDS011;3827;49.928;8.548;2024-03-02T06:47:43;17.83;;;14.60;;
7571;SDS011;3827;49.928;8.548;2024-03-02T06:50:10;16.27;;;14.48;;
7571;SDS011;3827;49.928;8.548;2024-03-02T06:52:37;20.63;;;18.43;;
7571;SDS011;3827;49.928;8.548;2024-03-02T06:55:05;21.27;;;18.23;;
7571;SDS011;3827;49.928;8.548;2024-03-02T06:57:33;23.17;;;18.55;;
7571;SDS011;3827;49.928;8.548;2024-03-02T07:00:00;21.60;;;18.67;;
7571;SDS011;3827;49.928;8.548;2024-03-02T07:02:30;18.23;;;16.23;;
7571;SDS011;3827;49.928;8.548;2024-03-02T07:04:57;19.50;;;17.17;;
7571;SDS011;3827;49.928;8.548;2024-03-02T07:07:23;18.13;;;15.88;;
7571;SDS011;3827;49.928;8.548;2024-03-02T07:09:50;17.45;;;15.52;;
7571;SDS011;3827;49.928;8.548;2024-03-02T07:12:17;16.95;;;14.85;;
7571;SDS011;3827;49.928;8.548;2024-03-02T07:14:45;20.02;;;17.15;;
7571;SDS011;3827;49.928;8.548;2024-03-02T07:17:36;24.27;;;19.37;;
7571;SDS011;3827;49.928;8.548;2024-03-02T07:20:03;24.27;;;20.98;;
7571;SDS011;3827;49.928;8.548;2024-03-02T07:22:31;23.63;;;20.38;;
7571;SDS011;3827;49.928;8.548;2024-03-02T07:24:58;20.95;;;18.73;;
7571;SDS011;3827;49.928;8.548;2024-03-02T07:27:25;20.13;;;17.45;;
7571;SDS011;3827;49.928;8.548;2024-03-02T07:29:53;21.27;;;18.67;;
7571;SDS011;3827;49.928;8.548;2024-03-02T07:32:20;20.00;;;17.50;;
7571;SDS011;3827;49.928;8.548;2024-03-02T07:34:47;21.48;;;17.58;;
7571;SDS011;3827;49.928;8.548;2024-03-02T07:37:15;20.08;;;17.60;;
7571;SDS011;3827;49.928;8.548;2024-03-02T07:39:43;19.77;;;17.60;;
7571;SDS011;3827;49.928;8.548;2024-03-02T07:42:11;18.15;;;16.25;;
7571;SDS011;3827;49.928;8.548;2024-03-02T07:44:37;18.45;;;16.42;;
7571;SDS011;3827;49.928;8.548;2024-03-02T07:47:06;21.38;;;18.00;;
7571;SDS011;3827;49.928;8.548;2024-03-02T07:49:33;19.95;;;17.75;;
7571;SDS011;3827;49.928;8.548;2024-03-02T07:52:00;20.73;;;18.45;;
7571;SDS011;3827;49.928;8.548;2024-03-02T07:54:26;20.50;;;17.75;;
7571;SDS011;3827;49.928;8.548;2024-03-02T07:56:53;21.00;;;18.25;;
7571;SDS011;3827;49.928;8.548;2024-03-02T07:59:20;19.33;;;17.23;;
7571;SDS011;3827;49.928;8.548;2024-03-02T08:01:48;18.27;;;16.38;;
7571;SDS011;3827;49.928;8.548;2024-03-02T08:04:16;17.97;;;16.07;;
7571;SDS011;3827;49.928;8.548;2024-03-02T08:06:43;16.67;;;14.93;;
7571;SDS011;3827;49.928;8.548;2024-03-02T08:09:12;15.15;;;13.55;;
7571;SDS011;3827;49.928;8.548;2024-03-02T08:11:39;16.38;;;14.68;;
7571;SDS011;3827;49.928;8.548;2024-03-02T08:14:05;15.00;;;12.38;;
7571;SDS011;3827;49.928;8.548;2024-03-02T08:16:32;13.82;;;12.43;;
7571;SDS011;3827;49.928;8.548;2024-03-02T08:18:59;15.47;;;13.47;;
7571;SDS011;3827;49.928;8.548;2024-03-02T08:21:27;13.70;;;12.30;;
7571;SDS011;3827;49.928;8.548;2024-03-02T08:23:55;12.88;;;11.65;;
7571;SDS011;3827;49.928;8.548;2024-03-02T08:26:23;13.75;;;12.38;;
7571;SDS011;3827;49.928;8.548;2024-03-02T08:28:50;14.38;;;12.88;;
7571;SDS011;3827;49.928;8.548;2024-03-02T08:31:17;14.57;;;12.98;;
7571;SDS011;3827;49.928;8.548;2024-03-02T08:33:43;14.00;;;12.50;;
7571;SDS011;3827;49.928;8.548;2024-03-02T08:36:10;12.97;;;11.67;;
7571;SDS011;3827;49.928;8.548;2024-03-02T08:38:39;12.93;;;11.13;;
7571;SDS011;3827;49.928;8.548;2024-03-02T08:41:06;11.23;;;10.02;;
7571;SDS011;3827;49.928;8.548;2024-03-02T08:43:33;15.75;;;14.15;;
7571;SDS011;3827;49.928;8.548;2024-03-02T08:46:00;13.20;;;11.90;;
7571;SDS011;3827;49.928;8.548;2024-03-02T08:48:27;12.20;;;10.95;;
7571;SDS011;3827;49.928;8.548;2024-03-02T08:50:54;10.70;;;9.70;;
7571;SDS011;3827;49.928;8.548;2024-03-02T08:53:20;11.35;;;10.15;;
7571;SDS011;3827;49.928;8.548;2024-03-02T08:55:49;11.30;;;10.03;;
7571;SDS011;3827;49.928;8.548;2024-03-02T08:58:15;11.10;;;9.88;;
7571;SDS011;3827;49.928;8.548;2024-03-02T09:00:42;10.60;;;9.60;;
7571;SDS011;3827;49.928;8.548;2024-03-02T09:03:09;10.35;;;9.25;;
7571;SDS011;3827;49.928;8.548;2024-03-02T09:05:36;9.88;;;8.95;;
7571;SDS011;3827;49.928;8.548;2024-03-02T09:08:03;11.57;;;9.80;;
7571;SDS011;3827;49.928;8.548;2024-03-02T09:10:30;10.00;;;9.00;;
7571;SDS011;3827;49.928;8.548;2024-03-02T09:12:59;11.47;;;10.23;;
7571;SDS011;3827;49.928;8.548;2024-03-02T09:15:25;11.30;;;9.85;;
7571;SDS011;3827;49.928;8.548;2024-03-02T09:17:53;9.70;;;8.70;;
7571;SDS011;3827;49.928;8.548;2024-03-02T09:20:19;10.75;;;8.85;;
7571;SDS011;3827;49.928;8.548;2024-03-02T09:22:46;9.43;;;8.43;;
7571;SDS011;3827;49.928;8.548;2024-03-02T09:25:13;9.68;;;8.73;;
7571;SDS011;3827;49.928;8.548;2024-03-02T09:27:41;9.77;;;8.77;;
7571;SDS011;3827;49.928;8.548;2024-03-02T09:30:09;10.00;;;9.00;;
7571;SDS011;3827;49.928;8.548;2024-03-02T09:32:38;9.65;;;8.55;;
7571;SDS011;3827;49.928;8.548;2024-03-02T09:35:05;9.63;;;8.63;;
7571;SDS011;3827;49.928;8.548;2024-03-02T09:37:33;10.23;;;8.70;;
7571;SDS011;3827;49.928;8.548;2024-03-02T09:40:00;19.63;;;17.25;;
7571;SDS011;3827;49.928;8.548;2024-03-02T09:42:27;10.10;;;9.13;;
7571;SDS011;3827;49.928;8.548;2024-03-02T09:44:54;9.07;;;8.18;;
7571;SDS011;3827;49.928;8.548;2024-03-02T09:47:24;9.77;;;8.80;;
7571;SDS011;3827;49.928;8.548;2024-03-02T09:49:50;9.43;;;8.43;;
7571;SDS011;3827;49.928;8.548;2024-03-02T09:52:17;8.38;;;7.47;;
7571;SDS011;3827;49.928;8.548;2024-03-02T09:54:44;8.77;;;7.88;;
7571;SDS011;3827;49.928;8.548;2024-03-02T09:57:13;8.38;;;7.57;;
7571;SDS011;3827;49.928;8.548;2024-03-02T09:59:40;9.57;;;8.68;;
7571;SDS011;3827;49.928;8.548;2024-03-02T10:02:07;9.30;;;8.13;;
7571;SDS011;3827;49.928;8.548;2024-03-02T10:04:35;8.30;;;7.50;;
7571;SDS011;3827;49.928;8.548;2024-03-02T10:09:47;8.30;;;7.50;;
7571;SDS011;3827;49.928;8.548;2024-03-02T10:12:15;8.25;;;7.25;;
7571;SDS011;3827;49.928;8.548;2024-03-02T10:14:42;7.80;;;7.00;;
7571;SDS011;3827;49.928;8.548;2024-03-02T10:17:10;8.40;;;7.22;;
7571;SDS011;3827;49.928;8.548;2024-03-02T10:19:39;8.32;;;7.47;;
7571;SDS011;3827;49.928;8.548;2024-03-02T10:22:06;7.70;;;6.97;;
7571;SDS011;3827;49.928;8.548;2024-03-02T10:24:35;7.55;;;6.85;;
7571;SDS011;3827;49.928;8.548;2024-03-02T10:27:06;7.80;;;6.90;;
7571;SDS011;3827;49.928;8.548;2024-03-02T10:29:37;7.05;;;6.40;;
7571;SDS011;3827;49.928;8.548;2024-03-02T10:32:04;7.57;;;6.88;;
7571;SDS011;3827;49.928;8.548;2024-03-02T10:34:32;7.15;;;6.45;;
7571;SDS011;3827;49.928;8.548;2024-03-02T10:37:00;7.30;;;6.45;;
7571;SDS011;3827;49.928;8.548;2024-03-02T10:39:27;7.25;;;6.55;;
7571;SDS011;3827;49.928;8.548;2024-03-02T10:41:55;6.80;;;6.20;;
7571;SDS011;3827;49.928;8.548;2024-03-02T10:44:22;6.57;;;5.97;;
7571;SDS011;3827;49.928;8.548;2024-03-02T10:46:49;6.28;;;5.68;;
7571;SDS011;3827;49.928;8.548;2024-03-02T10:49:18;6.20;;;5.60;;
7571;SDS011;3827;49.928;8.548;2024-03-02T10:51:46;6.82;;;5.88;;
7571;SDS011;3827;49.928;8.548;2024-03-02T10:54:15;6.03;;;5.45;;
7571;SDS011;3827;49.928;8.548;2024-03-02T10:56:43;6.57;;;5.97;;
7571;SDS011;3827;49.928;8.548;2024-03-02T10:59:15;6.00;;;5.40;;
7571;SDS011;3827;49.928;8.548;2024-03-02T11:01:48;6.13;;;5.43;;
7571;SDS011;3827;49.928;8.548;2024-03-02T11:04:16;6.70;;;5.68;;
7571;SDS011;3827;49.928;8.548;2024-03-02T11:06:49;6.18;;;5.57;;
7571;SDS011;3827;49.928;8.548;2024-03-02T11:09:19;5.60;;;5.10;;
7571;SDS011;3827;49.928;8.548;2024-03-02T11:11:49;6.30;;;5.65;;
7571;SDS011;3827;49.928;8.548;2024-03-02T11:14:23;5.60;;;5.03;;
7571;SDS011;3827;49.928;8.548;2024-03-02T11:16:51;5.70;;;5.17;;
7571;SDS011;3827;49.928;8.548;2024-03-02T11:19:19;5.43;;;4.93;;
7571;SDS011;3827;49.928;8.548;2024-03-02T11:21:47;5.38;;;4.88;;
7571;SDS011;3827;49.928;8.548;2024-03-02T11:24:31;5.32;;;4.82;;
7571;SDS011;3827;49.928;8.548;2024-03-02T11:26:59;5.35;;;4.85;;
7571;SDS011;3827;49.928;8.548;2024-03-02T11:29:44;5.40;;;4.90;;
7571;SDS011;3827;49.928;8.548;2024-03-02T11:32:15;8.43;;;5.43;;
7571;SDS011;3827;49.928;8.548;2024-03-02T11:34:45;4.90;;;4.43;;
7571;SDS011;3827;49.928;8.548;2024-03-02T11:37:14;4.95;;;4.43;;
7571;SDS011;3827;49.928;8.548;2024-03-02T11:39:44;4.20;;;3.80;;
7571;SDS011;3827;49.928;8.548;2024-03-02T11:42:13;4.85;;;4.40;;
7571;SDS011;3827;49.928;8.548;2024-03-02T11:44:42;4.70;;;4.20;;
7571;SDS011;3827;49.928;8.548;2024-03-02T11:47:11;4.20;;;3.80;;
7571;SDS011;3827;49.928;8.548;2024-03-02T11:49:40;5.03;;;4.53;;
7571;SDS011;3827;49.928;8.548;2024-03-02T11:52:09;4.13;;;3.83;;
7571;SDS011;3827;49.928;8.548;2024-03-02T11:54:37;5.07;;;4.53;;
7571;SDS011;3827;49.928;8.548;2024-03-02T11:57:07;4.63;;;4.10;;
7571;SDS011;3827;49.928;8.548;2024-03-02T11:59:34;4.35;;;3.72;;
7571;SDS011;3827;49.928;8.548;2024-03-02T12:02:01;5.20;;;3.70;;
7571;SDS011;3827;49.928;8.548;2024-03-02T12:04:29;4.35;;;3.95;;
7571;SDS011;3827;49.928;8.548;2024-03-02T12:06:57;4.95;;;3.70;;
7571;SDS011;3827;49.928;8.548;2024-03-02T12:09:25;3.60;;;3.25;;
7571;SDS011;3827;49.928;8.548;2024-03-02T12:12:01;3.33;;;3.03;;
7571;SDS011;3827;49.928;8.548;2024-03-02T12:14:33;4.00;;;3.10;;
7571;SDS011;3827;49.928;8.548;2024-03-02T12:17:01;3.80;;;3.30;;
7571;SDS011;3827;49.928;8.548;2024-03-02T12:19:28;3.20;;;2.90;;
7571;SDS011;3827;49.928;8.548;2024-03-02T12:21:56;3.28;;;2.88;;
7571;SDS011;3827;49.928;8.548;2024-03-02T12:24:23;2.95;;;2.70;;
7571;SDS011;3827;49.928;8.548;2024-03-02T12:26:52;3.20;;;2.90;;
7571;SDS011;3827;49.928;8.548;2024-03-02T12:29:20;2.80;;;2.50;;
7571;SDS011;3827;49.928;8.548;2024-03-02T12:31:48;3.65;;;2.83;;
7571;SDS011;3827;49.928;8.548;2024-03-02T12:34:17;2.90;;;2.70;;
7571;SDS011;3827;49.928;8.548;2024-03-02T12:36:45;3.20;;;2.80;;
7571;SDS011;3827;49.928;8.548;2024-03-02T12:39:14;2.53;;;2.33;;
7571;SDS011;3827;49.928;8.548;2024-03-02T12:41:41;3.08;;;2.58;;
7571;SDS011;3827;49.928;8.548;2024-03-02T12:44:08;4.35;;;2.67;;
7571;SDS011;3827;49.928;8.548;2024-03-02T12:46:35;2.50;;;2.30;;
7571;SDS011;3827;49.928;8.548;2024-03-02T12:49:07;2.55;;;2.35;;
7571;SDS011;3827;49.928;8.548;2024-03-02T12:51:36;2.83;;;2.60;;
7571;SDS011;3827;49.928;8.548;2024-03-02T12:54:03;3.20;;;2.70;;
7571;SDS011;3827;49.928;8.548;2024-03-02T12:56:30;3.70;;;2.80;;
7571;SDS011;3827;49.928;8.548;2024-03-02T12:58:58;2.77;;;2.50;;
7571;SDS011;3827;49.928;8.548;2024-03-02T13:01:25;2.95;;;2.65;;
7571;SDS011;3827;49.928;8.548;2024-03-02T13:03:52;3.30;;;2.50;;
7571;SDS011;3827;49.928;8.548;2024-03-02T13:06:22;2.63;;;2.40;;
7571;SDS011;3827;49.928;8.548;2024-03-02T13:08:49;2.88;;;2.58;;
7571;SDS011;3827;49.928;8.548;2024-03-02T13:11:16;3.22;;;2.60;;
7571;SDS011;3827;49.928;8.548;2024-03-02T13:13:44;2.85;;;2.58;;
7571;SDS011;3827;49.928;8.548;2024-03-02T13:16:12;2.75;;;2.47;;
7571;SDS011;3827;49.928;8.548;2024-03-02T13:18:40;2.83;;;2.53;;
7571;SDS011;3827;49.928;8.548;2024-03-02T13:21:07;2.67;;;2.40;;
7571;SDS011;3827;49.928;8.548;2024-03-02T13:23:36;3.03;;;2.40;;
7571;SDS011;3827;49.928;8.548;2024-03-02T13:26:03;2.75;;;2.42;;
7571;SDS011;3827;49.928;8.548;2024-03-02T13:28:30;4.43;;;2.50;;
7571;SDS011;3827;49.928;8.548;2024-03-02T13:30:57;3.70;;;2.70;;
7571;SDS011;3827;49.928;8.548;2024-03-02T13:33:24;2.53;;;2.30;;
7571;SDS011;3827;49.928;8.548;2024-03-02T13:35:50;3.65;;;2.85;;
7571;SDS011;3827;49.928;8.548;2024-03-02T13:38:18;2.60;;;2.40;;
7571;SDS011;3827;49.928;8.548;2024-03-02T13:40:47;2.72;;;2.42;;
7571;SDS011;3827;49.928;8.548;2024-03-02T13:43:16;2.60;;;2.40;;
7571;SDS011;3827;49.928;8.548;2024-03-02T13:45:43;5.03;;;2.78;;
7571;SDS011;3827;49.928;8.548;2024-03-02T13:48:10;2.72;;;2.53;;
7571;SDS011;3827;49.928;8.548;2024-03-02T13:50:37;2.40;;;2.20;;
7571;SDS011;3827;49.928;8.548;2024-03-02T13:53:04;2.22;;;2.03;;
7571;SDS011;3827;49.928;8.548;2024-03-02T13:55:31;2.50;;;2.30;;
7571;SDS011;3827;49.928;8.548;2024-03-02T13:58:00;3.20;;;2.35;;
7571;SDS011;3827;49.928;8.548;2024-03-02T14:00:26;2.53;;;2.30;;
7571;SDS011;3827;49.928;8.548;2024-03-02T14:02:54;2.67;;;2.40;;
7571;SDS011;3827;49.928;8.548;2024-03-02T14:05:21;2.38;;;2.17;;
7571;SDS011;3827;49.928;8.548;2024-03-02T14:07:48;2.45;;;2.25;;
7571;SDS011;3827;49.928;8.548;2024-03-02T14:10:15;2.35;;;2.05;;
7571;SDS011;3827;49.928;8.548;2024-03-02T14:12:43;1.70;;;1.60;;
7571;SDS011;3827;49.928;8.548;2024-03-02T14:15:11;2.40;;;2.20;;
7571;SDS011;3827;49.928;8.548;2024-03-02T14:17:38;2.42;;;2.08;;
7571;SDS011;3827;49.928;8.548;2024-03-02T14:20:06;2.23;;;2.03;;
7571;SDS011;3827;49.928;8.548;2024-03-02T14:22:35;1.98;;;1.80;;
7571;SDS011;3827;49.928;8.548;2024-03-02T14:25:02;1.95;;;1.85;;
7571;SDS011;3827;49.928;8.548;2024-03-02T14:27:29;2.63;;;2.03;;
7571;SDS011;3827;49.928;8.548;2024-03-02T14:29:56;1.95;;;1.65;;
7571;SDS011;3827;49.928;8.548;2024-03-02T14:32:24;2.40;;;2.00;;
7571;SDS011;3827;49.928;8.548;2024-03-02T14:34:51;2.65;;;2.45;;
7571;SDS011;3827;49.928;8.548;2024-03-02T14:37:18;2.92;;;2.47;;
7571;SDS011;3827;49.928;8.548;2024-03-02T14:39:45;2.50;;;2.20;;
7571;SDS011;3827;49.928;8.548;2024-03-02T14:42:12;2.22;;;2.03;;
7571;SDS011;3827;49.928;8.548;2024-03-02T14:44:38;2.97;;;2.28;;
7571;SDS011;3827;49.928;8.548;2024-03-02T14:47:05;2.40;;;2.20;;
7571;SDS011;3827;49.928;8.548;2024-03-02T14:49:33;2.40;;;1.95;;
7571;SDS011;3827;49.928;8.548;2024-03-02T14:52:03;2.80;;;2.17;;
7571;SDS011;3827;49.928;8.548;2024-03-02T14:54:30;2.67;;;2.00;;
7571;SDS011;3827;49.928;8.548;2024-03-02T14:56:57;1.80;;;1.70;;
7571;SDS011;3827;49.928;8.548;2024-03-02T14:59:23;1.65;;;1.55;;
7571;SDS011;3827;49.928;8.548;2024-03-02T15:01:52;1.70;;;1.60;;
7571;SDS011;3827;49.928;8.548;2024-03-02T15:04:19;1.70;;;1.60;;
7571;SDS011;3827;49.928;8.548;2024-03-02T15:06:47;2.33;;;2.00;;
7571;SDS011;3827;49.928;8.548;2024-03-02T15:09:14;3.08;;;2.38;;
7571;SDS011;3827;49.928;8.548;2024-03-02T15:11:43;2.23;;;1.93;;
7571;SDS011;3827;49.928;8.548;2024-03-02T15:14:10;2.80;;;2.10;;